Time;durP1;ratioP1;P1;durP2;ratioP2;P2;SDS_P1;SDS_P2;PMS_P1;PMS_P2;Temp;Humidity;BMP_temperature;BMP_pressure;BME280_temperature;BME280_humidity;BME280_pressure;Samples;Min_cycle;Max_cycle;Signal;HPM_P1;HPM_P2
2022/10/12 00:00:00;;;;;;;3.57;2.27;;;11.50;93.00;;;;;;5073393;28;20228;-70
2022/10/12 00:02:26;;;;;;;2.80;2.47;;;11.50;93.20;;;;;;5073494;28;20182;-70
2022/10/12 00:04:51;;;;;;;4.43;2.43;;;11.50;92.80;;;;;;5071749;28;20181;-70
2022/10/12 00:07:17;;;;;;;2.17;1.63;;;11.50;94.20;;;;;;5073478;28;20166;-74
2022/10/12 00:09:42;;;;;;;2.83;2.20;;;11.60;93.00;;;;;;5072840;28;20193;-71
2022/10/12 00:12:08;;;;;;;2.83;2.17;;;11.60;92.80;;;;;;5073251;28;20170;-73
2022/10/12 00:14:37;;;;;;;5.93;3.53;;;11.60;93.10;;;;;;5072652;28;20185;-72
2022/10/12 00:17:03;;;;;;;3.03;2.20;;;11.60;92.60;;;;;;5073325;28;20190;-71
2022/10/12 00:19:29;;;;;;;5.07;2.10;;;11.60;92.80;;;;;;5073209;28;20766;-71
2022/10/12 00:21:54;;;;;;;5.93;2.43;;;11.50;93.00;;;;;;5073201;28;20174;-73
2022/10/12 00:24:20;;;;;;;2.97;1.80;;;11.50;95.00;;;;;;5072678;28;20168;-71
2022/10/12 00:26:48;;;;;;;7.10;3.67;;;11.50;92.80;;;;;;5072316;28;20558;-71
2022/10/12 00:29:14;;;;;;;5.03;2.40;;;11.40;93.30;;;;;;5073375;28;20212;-70
2022/10/12 00:31:39;;;;;;;5.20;3.13;;;11.40;92.90;;;;;;5071714;28;20403;-70
2022/10/12 00:34:05;;;;;;;5.00;2.00;;;11.40;95.40;;;;;;5072137;28;20527;-70
2022/10/12 00:36:34;;;;;;;3.57;1.80;;;11.40;97.30;;;;;;5072879;28;20201;-70
2022/10/12 00:39:01;;;;;;;8.23;2.60;;;11.40;94.30;;;;;;5073186;28;20172;-71
2022/10/12 00:41:31;;;;;;;5.30;2.30;;;11.30;96.90;;;;;;5072673;28;20442;-73
2022/10/12 00:43:57;;;;;;;6.23;2.67;;;11.30;92.50;;;;;;5071678;28;20445;-72
2022/10/12 00:46:32;;;;;;;2.33;1.80;;;11.30;93.80;;;;;;5072710;28;20444;-72
2022/10/12 00:49:30;;;;;;;2.40;2.30;;;11.30;97.50;;;;;;5072881;28;20444;-72
2022/10/12 00:52:01;;;;;;;3.20;2.43;;;11.30;99.90;;;;;;5030105;28;20392;-69
2022/10/12 00:54:35;;;;;;;4.53;2.27;;;11.30;97.40;;;;;;5055169;28;20405;-73
2022/10/12 00:57:03;;;;;;;5.87;2.50;;;11.30;97.30;;;;;;5076686;28;20420;-73
2022/10/12 00:59:43;;;;;;;4.93;3.17;;;11.20;98.00;;;;;;5076415;28;20405;-73
2022/10/12 01:02:09;;;;;;;3.53;2.37;;;11.20;99.90;;;;;;5056193;28;20387;-74
2022/10/12 01:04:35;;;;;;;4.50;2.30;;;11.20;99.90;;;;;;5056163;28;20383;-73
2022/10/12 01:07:01;;;;;;;3.80;2.57;;;11.30;99.90;;;;;;5076826;28;20499;-71
2022/10/12 01:09:27;;;;;;;2.50;1.80;;;11.30;99.70;;;;;;5076752;28;20848;-71
2022/10/12 01:11:53;;;;;;;2.50;2.10;;;11.20;99.90;;;;;;5071749;28;20175;-73
2022/10/12 01:14:19;;;;;;;3.50;2.77;;;11.20;99.90;;;;;;5055578;28;20441;-72
2022/10/12 01:17:07;;;;;;;2.63;2.37;;;11.20;99.90;;;;;;5073613;28;20201;-70
2022/10/12 01:19:43;;;;;;;4.10;2.37;;;11.20;99.90;;;;;;5075924;28;20175;-73
2022/10/12 01:22:13;;;;;;;2.50;2.30;;;11.10;99.90;;;;;;5076266;28;20480;-71
2022/10/12 01:25:04;;;;;;;2.40;2.10;;;11.10;99.90;;;;;;5074882;28;20428;-72
2022/10/12 01:28:00;;;;;;;2.40;2.20;;;11.00;99.90;;;;;;5075991;28;20494;-71
2022/10/12 01:30:30;;;;;;;3.40;2.60;;;11.00;99.90;;;;;;5076042;28;20525;-73
2022/10/12 01:33:15;;;;;;;6.67;2.80;;;11.10;99.90;;;;;;5075926;28;20395;-72
2022/10/12 01:35:57;;;;;;;3.57;3.27;;;11.00;99.90;;;;;;5075054;28;20891;-70
2022/10/12 01:38:41;;;;;;;5.87;3.43;;;11.00;99.90;;;;;;5074024;28;20394;-72
2022/10/12 01:41:15;;;;;;;6.30;3.07;;;11.10;99.90;;;;;;5075800;28;20951;-72
2022/10/12 01:43:42;;;;;;;4.93;2.47;;;11.00;99.90;;;;;;5074771;28;20816;-74
2022/10/12 01:46:14;;;;;;;4.13;3.17;;;11.00;99.90;;;;;;5075450;28;20415;-72
2022/10/12 01:48:42;;;;;;;5.00;2.40;;;11.10;99.90;;;;;;5075665;28;20989;-73
2022/10/12 01:51:10;;;;;;;4.73;3.00;;;11.20;99.90;;;;;;5071199;28;20442;-71
2022/10/12 01:53:46;;;;;;;6.13;3.10;;;11.10;99.90;;;;;;5055471;28;20422;-77
2022/10/12 01:56:24;;;;;;;3.40;2.60;;;11.20;99.90;;;;;;5082234;28;20444;-72
2022/10/12 01:59:17;;;;;;;8.53;3.67;;;11.20;99.90;;;;;;5075139;28;20483;-71
2022/10/12 02:02:16;;;;;;;3.13;2.80;;;11.10;99.90;;;;;;5074114;28;20517;-71
2022/10/12 02:04:57;;;;;;;4.80;2.97;;;11.10;99.90;;;;;;5072220;28;20418;-74
2022/10/12 02:07:30;;;;;;;6.90;2.57;;;11.00;99.90;;;;;;5091353;28;20733;-72
2022/10/12 02:09:58;;;;;;;4.33;2.97;;;10.90;99.90;;;;;;5073987;28;20500;-72
2022/10/12 02:12:25;;;;;;;3.63;3.33;;;10.90;99.90;;;;;;5075657;28;20390;-72
2022/10/12 02:14:57;;;;;;;3.80;3.27;;;10.90;99.90;;;;;;5072709;28;20409;-73
2022/10/12 02:17:23;;;;;;;3.97;3.23;;;10.90;99.90;;;;;;5073806;28;20391;-71
2022/10/12 02:19:56;;;;;;;3.30;3.00;;;10.90;99.90;;;;;;5074979;28;20412;-71
2022/10/12 02:22:26;;;;;;;6.63;3.30;;;11.00;99.90;;;;;;5074056;28;20411;-71
2022/10/12 02:24:55;;;;;;;8.43;3.63;;;11.00;99.90;;;;;;5073781;28;20400;-71
2022/10/12 02:27:22;;;;;;;10.97;3.30;;;11.00;99.90;;;;;;5075265;28;20466;-70
2022/10/12 02:29:48;;;;;;;4.40;3.20;;;11.00;99.90;;;;;;5074734;28;20495;-71
2022/10/12 02:32:20;;;;;;;10.73;2.97;;;11.10;99.90;;;;;;5075093;28;20445;-72
2022/10/12 02:34:54;;;;;;;7.23;3.40;;;11.00;99.90;;;;;;5073435;28;20166;-71
2022/10/12 02:37:37;;;;;;;5.63;3.57;;;11.00;99.90;;;;;;5073648;28;20412;-71
2022/10/12 02:40:12;;;;;;;3.53;2.87;;;11.00;99.90;;;;;;5073481;28;20448;-72
2022/10/12 02:42:43;;;;;;;10.47;3.70;;;11.00;99.90;;;;;;5074806;28;20420;-72
2022/10/12 02:45:10;;;;;;;7.37;3.80;;;11.00;99.90;;;;;;5072192;28;20415;-70
2022/10/12 02:47:37;;;;;;;7.33;4.50;;;11.00;99.90;;;;;;5074734;28;20443;-72
2022/10/12 02:50:06;;;;;;;4.40;3.13;;;10.90;99.90;;;;;;5074763;28;20944;-72
2022/10/12 02:52:32;;;;;;;7.10;4.60;;;11.00;99.90;;;;;;5074360;28;20430;-72
2022/10/12 02:54:58;;;;;;;5.20;4.70;;;10.90;99.90;;;;;;5073038;28;20407;-73
2022/10/12 02:57:24;;;;;;;5.77;3.60;;;10.90;99.90;;;;;;5074145;28;20423;-73
2022/10/12 02:59:49;;;;;;;6.13;3.90;;;10.90;99.90;;;;;;5074394;28;20211;-72
2022/10/12 03:02:15;;;;;;;12.13;4.90;;;10.90;99.90;;;;;;5074102;28;20623;-71
2022/10/12 03:04:41;;;;;;;5.90;4.17;;;11.00;99.90;;;;;;5072485;28;20650;-71
2022/10/12 03:07:06;;;;;;;4.93;4.07;;;10.90;99.90;;;;;;5072880;28;20198;-74
2022/10/12 03:09:32;;;;;;;5.53;3.27;;;10.90;99.90;;;;;;5072660;28;20758;-73
2022/10/12 03:11:59;;;;;;;7.87;3.70;;;10.90;99.90;;;;;;5074452;28;20201;-71
2022/10/12 03:14:26;;;;;;;11.03;4.00;;;10.90;99.90;;;;;;5072576;28;20395;-72
2022/10/12 03:16:52;;;;;;;3.90;3.60;;;10.80;99.90;;;;;;5072069;28;20190;-72
2022/10/12 03:19:17;;;;;;;11.67;4.37;;;10.80;99.90;;;;;;5073842;28;20746;-71
2022/10/12 03:21:43;;;;;;;11.43;3.83;;;10.90;99.90;;;;;;5074131;28;20956;-73
2022/10/12 03:24:09;;;;;;;10.10;4.40;;;10.90;99.90;;;;;;5072644;28;20182;-70
2022/10/12 03:26:35;;;;;;;10.97;4.40;;;10.80;99.90;;;;;;5073914;28;20190;-72
2022/10/12 03:29:00;;;;;;;10.73;5.10;;;10.70;99.90;;;;;;5073764;28;20210;-72
2022/10/12 03:31:26;;;;;;;11.70;5.00;;;10.70;99.90;;;;;;5073855;28;20178;-74
2022/10/12 03:33:52;;;;;;;7.20;3.53;;;10.70;99.90;;;;;;5072403;28;20178;-71
2022/10/12 03:36:18;;;;;;;8.97;4.27;;;10.70;99.90;;;;;;5073713;28;20186;-72
2022/10/12 03:38:43;;;;;;;9.90;3.70;;;10.60;99.90;;;;;;5073556;28;20254;-71
2022/10/12 03:41:09;;;;;;;13.60;4.60;;;10.60;99.90;;;;;;5073819;28;20262;-71
2022/10/12 03:43:34;;;;;;;8.70;3.47;;;10.70;99.90;;;;;;5073096;28;20208;-73
2022/10/12 03:46:00;;;;;;;11.37;3.50;;;10.60;99.90;;;;;;5073024;28;20650;-72
2022/10/12 03:48:26;;;;;;;4.77;4.37;;;10.60;99.90;;;;;;5073408;28;20557;-72
2022/10/12 03:50:52;;;;;;;14.13;4.67;;;10.60;99.90;;;;;;5073443;28;20195;-73
2022/10/12 03:53:18;;;;;;;12.77;4.80;;;10.60;99.90;;;;;;5072951;28;20179;-71
2022/10/12 03:55:45;;;;;;;6.10;4.20;;;10.50;99.90;;;;;;5072694;28;20456;-71
2022/10/12 03:58:11;;;;;;;5.27;4.27;;;10.40;99.90;;;;;;5071976;28;20503;-70
2022/10/12 04:00:37;;;;;;;6.43;4.83;;;10.40;99.90;;;;;;5073332;28;20413;-71
2022/10/12 04:03:02;;;;;;;5.87;4.13;;;10.30;99.90;;;;;;5073153;28;20839;-72
2022/10/12 04:05:29;;;;;;;5.73;4.13;;;10.30;99.90;;;;;;5071374;28;20205;-72
2022/10/12 04:07:55;;;;;;;6.27;4.70;;;10.20;99.90;;;;;;5072953;28;20420;-71
2022/10/12 04:10:20;;;;;;;7.93;6.80;;;10.10;99.90;;;;;;5088873;28;20431;-72
2022/10/12 04:12:46;;;;;;;9.13;6.10;;;10.10;99.90;;;;;;5073144;28;20180;-72
2022/10/12 04:15:12;;;;;;;4.20;3.80;;;10.00;99.90;;;;;;5072629;28;20708;-72
2022/10/12 04:17:38;;;;;;;7.10;5.10;;;9.90;99.90;;;;;;5073067;28;20162;-72
2022/10/12 04:20:04;;;;;;;5.37;4.50;;;9.90;99.90;;;;;;5073382;28;20387;-73
2022/10/12 04:22:30;;;;;;;8.00;5.30;;;9.90;99.90;;;;;;5073126;28;20174;-72
2022/10/12 04:24:55;;;;;;;12.70;5.20;;;9.80;99.90;;;;;;5072596;28;20869;-71
2022/10/12 04:27:21;;;;;;;15.33;5.90;;;9.80;99.90;;;;;;5073619;28;20185;-74
2022/10/12 04:29:47;;;;;;;8.60;4.53;;;9.70;99.90;;;;;;5077264;28;20216;-72
2022/10/12 04:32:12;;;;;;;8.13;5.80;;;9.70;99.90;;;;;;5076964;28;20174;-72
2022/10/12 04:34:38;;;;;;;9.30;5.63;;;9.60;99.90;;;;;;5076462;28;20182;-74
2022/10/12 04:37:04;;;;;;;14.37;5.50;;;9.60;99.90;;;;;;5076894;28;20203;-71
2022/10/12 04:39:30;;;;;;;7.23;5.53;;;9.50;99.90;;;;;;5077273;28;20581;-71
2022/10/12 04:41:55;;;;;;;11.00;5.40;;;9.50;99.90;;;;;;5076804;28;20623;-73
2022/10/12 04:44:21;;;;;;;15.20;5.30;;;9.40;99.90;;;;;;5076187;28;20172;-71
2022/10/12 04:46:47;;;;;;;10.20;5.67;;;9.40;99.90;;;;;;5076243;28;20687;-72
2022/10/12 04:49:13;;;;;;;10.20;6.87;;;9.40;99.90;;;;;;5075865;28;20564;-70
2022/10/12 04:51:39;;;;;;;13.60;8.03;;;9.40;99.90;;;;;;5076630;28;20504;-71
2022/10/12 04:54:04;;;;;;;11.33;7.23;;;9.30;99.90;;;;;;5075929;28;20389;-71
2022/10/12 04:56:30;;;;;;;10.53;7.67;;;9.20;99.90;;;;;;5071793;28;20639;-74
2022/10/12 04:58:56;;;;;;;10.30;7.40;;;9.20;99.90;;;;;;5056723;28;20173;-72
2022/10/12 05:01:21;;;;;;;12.00;6.97;;;9.10;99.90;;;;;;5061089;28;20170;-73
2022/10/12 05:03:47;;;;;;;8.70;6.93;;;9.10;99.90;;;;;;5075502;28;20214;-74
2022/10/12 05:06:12;;;;;;;19.80;11.97;;;9.00;99.20;;;;;;5071268;28;20194;-70
2022/10/12 05:08:38;;;;;;;10.20;7.77;;;9.00;99.90;;;;;;5056638;28;20549;-70
2022/10/12 05:11:04;;;;;;;13.83;7.50;;;9.00;99.90;;;;;;5057478;28;20290;-70
2022/10/12 05:13:30;;;;;;;18.10;8.20;;;8.90;99.90;;;;;;5074996;28;20179;-72
2022/10/12 05:15:55;;;;;;;12.33;7.80;;;9.00;99.90;;;;;;5075553;28;20189;-71
2022/10/12 05:18:21;;;;;;;11.37;7.67;;;8.90;99.90;;;;;;5076411;28;20168;-70
2022/10/12 05:20:47;;;;;;;17.77;8.60;;;8.90;93.20;;;;;;5076498;28;20560;-73
2022/10/12 05:23:12;;;;;;;13.87;7.27;;;8.90;91.80;;;;;;5075672;28;20179;-70
2022/10/12 05:25:38;;;;;;;18.73;7.87;;;8.90;92.10;;;;;;5075125;28;20558;-70
2022/10/12 05:28:05;;;;;;;9.23;7.53;;;8.90;92.00;;;;;;5076129;28;20180;-71
2022/10/12 05:30:31;;;;;;;12.00;7.97;;;8.80;92.00;;;;;;5071090;28;20806;-70
2022/10/12 05:32:56;;;;;;;14.63;7.03;;;8.80;92.00;;;;;;5056226;28;20468;-70
2022/10/12 05:35:22;;;;;;;12.90;8.57;;;8.70;92.00;;;;;;5064906;28;20218;-73
2022/10/12 05:37:48;;;;;;;10.17;6.47;;;8.70;92.00;;;;;;5076127;28;20641;-70
2022/10/12 05:40:13;;;;;;;9.53;6.90;;;8.70;91.90;;;;;;5074801;28;20182;-71
2022/10/12 05:42:39;;;;;;;13.30;7.13;;;8.60;92.00;;;;;;5075456;28;20558;-72
2022/10/12 05:45:05;;;;;;;10.93;6.77;;;8.60;92.00;;;;;;5074843;28;20712;-73
2022/10/12 05:47:31;;;;;;;10.00;7.13;;;8.50;91.90;;;;;;5075981;28;20175;-73
2022/10/12 05:49:56;;;;;;;14.43;6.80;;;8.50;99.90;;;;;;5071023;28;20461;-70
2022/10/12 05:52:22;;;;;;;11.47;7.43;;;8.40;91.80;;;;;;5055730;28;20200;-72
2022/10/12 05:54:48;;;;;;;13.63;6.90;;;8.50;99.40;;;;;;5070488;28;20263;-70
2022/10/12 05:57:14;;;;;;;13.87;8.13;;;8.40;99.90;;;;;;5075818;28;20178;-73
2022/10/12 05:59:43;;;;;;;13.67;9.10;;;8.40;98.70;;;;;;5074158;28;20766;-73
2022/10/12 06:02:16;;;;;;;10.50;8.97;;;8.40;94.70;;;;;;5074196;28;20175;-74
2022/10/12 06:04:41;;;;;;;15.00;7.63;;;8.40;95.00;;;;;;5073785;28;20411;-74
2022/10/12 06:07:08;;;;;;;18.80;8.60;;;8.40;97.00;;;;;;5075592;28;20425;-69
2022/10/12 06:09:34;;;;;;;14.50;7.60;;;8.40;93.10;;;;;;5075489;28;20203;-70
2022/10/12 06:12:00;;;;;;;13.73;7.30;;;8.40;99.90;;;;;;5075391;28;20414;-70
2022/10/12 06:14:25;;;;;;;12.03;8.33;;;8.50;95.70;;;;;;5073707;28;20410;-70
2022/10/12 06:16:51;;;;;;;8.63;7.10;;;8.50;99.90;;;;;;5075122;28;20262;-73
2022/10/12 06:19:17;;;;;;;8.57;6.77;;;8.50;99.90;;;;;;5075306;28;20167;-70
2022/10/12 06:21:42;;;;;;;7.03;6.33;;;8.50;99.90;;;;;;5075454;28;20177;-70
2022/10/12 06:24:08;;;;;;;7.90;5.70;;;8.50;99.90;;;;;;5074545;28;20169;-73
2022/10/12 06:26:34;;;;;;;9.30;6.47;;;8.50;99.90;;;;;;5075200;28;20222;-70
2022/10/12 06:28:59;;;;;;;8.00;7.07;;;8.50;99.90;;;;;;5090880;28;20199;-70
2022/10/12 06:31:26;;;;;;;11.30;7.83;;;8.50;99.90;;;;;;5075158;28;20244;-73
2022/10/12 06:33:52;;;;;;;8.80;5.93;;;8.60;99.90;;;;;;5074398;28;20254;-73
2022/10/12 06:36:18;;;;;;;6.10;5.50;;;8.60;99.90;;;;;;5074519;28;20443;-73
2022/10/12 06:38:44;;;;;;;7.00;5.13;;;8.60;99.90;;;;;;5074973;28;20694;-70
2022/10/12 06:41:10;;;;;;;10.53;6.20;;;8.60;99.90;;;;;;5074829;28;20447;-70
2022/10/12 06:43:35;;;;;;;7.43;5.57;;;8.70;99.90;;;;;;5074398;28;20185;-74
2022/10/12 06:46:02;;;;;;;8.40;5.37;;;8.70;99.90;;;;;;5073697;28;20187;-72
2022/10/12 06:48:28;;;;;;;10.60;5.80;;;8.70;99.90;;;;;;5073713;28;20228;-73
2022/10/12 06:50:54;;;;;;;6.03;5.40;;;8.70;99.90;;;;;;5073188;28;20463;-70
2022/10/12 06:53:21;;;;;;;7.37;5.37;;;8.80;99.90;;;;;;5074479;28;20753;-73
2022/10/12 06:55:46;;;;;;;9.13;5.30;;;8.80;99.90;;;;;;5073631;28;20533;-73
2022/10/12 06:58:12;;;;;;;6.53;4.90;;;8.80;99.90;;;;;;5074536;28;20785;-70
2022/10/12 07:00:38;;;;;;;7.90;5.40;;;8.90;99.90;;;;;;5074433;28;20173;-70
2022/10/12 07:03:03;;;;;;;7.50;5.10;;;8.90;99.90;;;;;;5074217;28;20202;-72
2022/10/12 07:05:29;;;;;;;7.70;5.10;;;9.00;99.90;;;;;;5073612;28;20189;-70
2022/10/12 07:07:55;;;;;;;5.80;4.83;;;9.00;99.90;;;;;;5074426;28;20228;-70
2022/10/12 07:10:21;;;;;;;6.67;5.13;;;9.10;99.90;;;;;;5074294;28;20204;-73
2022/10/12 07:12:46;;;;;;;17.63;4.93;;;9.10;99.90;;;;;;5073116;28;20171;-72
2022/10/12 07:15:12;;;;;;;5.27;4.23;;;9.20;99.90;;;;;;5072846;28;20209;-70
2022/10/12 07:17:37;;;;;;;5.83;4.20;;;9.30;99.90;;;;;;5074199;28;20257;-72
2022/10/12 07:20:04;;;;;;;6.70;5.23;;;9.40;99.90;;;;;;5074169;28;20178;-73
2022/10/12 07:22:30;;;;;;;8.10;5.20;;;9.50;99.90;;;;;;5074187;28;20250;-70
2022/10/12 07:24:55;;;;;;;10.53;5.10;;;9.50;99.90;;;;;;5073182;28;20488;-73
2022/10/12 07:27:21;;;;;;;6.50;5.10;;;9.60;99.90;;;;;;5073850;28;20166;-73
2022/10/12 07:29:47;;;;;;;6.73;4.23;;;9.70;99.90;;;;;;5072524;28;20610;-73
2022/10/12 07:32:12;;;;;;;7.87;5.43;;;9.70;99.90;;;;;;5073442;28;20201;-73
2022/10/12 07:34:38;;;;;;;13.33;5.23;;;9.80;99.90;;;;;;5073084;28;20169;-70
2022/10/12 07:37:04;;;;;;;9.53;5.43;;;9.90;99.90;;;;;;5073468;28;20189;-71
2022/10/12 07:39:29;;;;;;;10.73;5.17;;;9.90;99.90;;;;;;5089161;28;20691;-73
2022/10/12 07:41:55;;;;;;;7.97;4.60;;;10.00;99.90;;;;;;5073722;28;20185;-70
2022/10/12 07:44:22;;;;;;;7.40;5.27;;;10.10;99.90;;;;;;5072492;28;20196;-70
2022/10/12 07:46:47;;;;;;;5.90;5.20;;;10.10;99.90;;;;;;5073625;28;20429;-70
2022/10/12 07:49:14;;;;;;;9.53;6.43;;;10.10;99.90;;;;;;5073009;28;20434;-74
2022/10/12 07:51:41;;;;;;;7.30;4.90;;;10.20;99.90;;;;;;5073220;28;20530;-72
2022/10/12 07:54:07;;;;;;;8.60;5.00;;;10.30;99.90;;;;;;5067715;28;20413;-70
2022/10/12 07:56:33;;;;;;;11.53;4.83;;;10.40;99.90;;;;;;5053519;28;20411;-70
2022/10/12 07:58:59;;;;;;;13.53;5.47;;;10.50;99.90;;;;;;5066564;28;20506;-71
2022/10/12 08:01:28;;;;;;;7.70;4.90;;;10.60;99.90;;;;;;5073234;28;20381;-72
2022/10/12 08:03:55;;;;;;;10.40;5.40;;;10.60;99.90;;;;;;5071957;28;20797;-72
2022/10/12 08:06:24;;;;;;;6.63;5.10;;;10.70;99.90;;;;;;5073059;28;20480;-71
2022/10/12 08:08:50;;;;;;;10.20;5.63;;;10.80;99.90;;;;;;5072964;28;20428;-73
2022/10/12 08:11:17;;;;;;;7.17;5.40;;;10.80;99.90;;;;;;5073347;28;20374;-73
2022/10/12 08:13:43;;;;;;;8.70;6.37;;;10.90;99.90;;;;;;5072019;28;20448;-70
2022/10/12 08:16:11;;;;;;;10.70;6.10;;;11.10;99.90;;;;;;5073338;28;20789;-73
2022/10/12 08:18:37;;;;;;;8.27;6.07;;;11.20;99.90;;;;;;5073090;28;20416;-70
2022/10/12 08:21:04;;;;;;;10.93;5.17;;;11.30;99.90;;;;;;5073498;28;20883;-73
2022/10/12 08:23:30;;;;;;;10.60;5.20;;;11.40;99.90;;;;;;5072506;28;20410;-70
2022/10/12 08:25:57;;;;;;;15.80;5.17;;;11.50;99.90;;;;;;5071945;28;20909;-70
2022/10/12 08:28:23;;;;;;;6.20;4.93;;;11.70;99.90;;;;;;5073227;28;20181;-71
2022/10/12 08:30:49;;;;;;;9.87;5.80;;;11.80;99.90;;;;;;5072981;28;20481;-65
2022/10/12 08:33:16;;;;;;;19.43;5.20;;;11.90;99.90;;;;;;5058947;28;20437;-68
2022/10/12 08:35:42;;;;;;;11.63;6.00;;;12.10;99.90;;;;;;5052118;28;20198;-69
2022/10/12 08:38:10;;;;;;;7.70;5.37;;;12.20;99.90;;;;;;5071982;28;20420;-69
2022/10/12 08:40:47;;;;;;;10.03;5.30;;;12.40;99.90;;;;;;5071801;28;20919;-69
2022/10/12 08:43:41;;;;;;;10.47;5.20;;;12.50;99.90;;;;;;5070846;28;20399;-70
2022/10/12 08:46:07;;;;;;;9.30;5.10;;;12.70;99.90;;;;;;5072648;28;20423;-71
2022/10/12 08:49:14;;;;;;;12.90;4.60;;;12.80;99.90;;;;;;5072092;28;20952;-71
2022/10/12 08:51:48;;;;;;;8.33;4.47;;;13.00;93.10;;;;;;5059753;28;20701;-70
2022/10/12 08:54:17;;;;;;;9.07;4.07;;;13.10;82.70;;;;;;5072967;28;20900;-70
2022/10/12 08:56:43;;;;;;;9.60;4.00;;;13.20;79.10;;;;;;5052870;28;20971;-70
2022/10/12 08:59:15;;;;;;;11.37;3.90;;;13.30;63.60;;;;;;5070479;28;20424;-71
2022/10/12 09:02:24;;;;;;;6.40;4.10;;;13.40;30.00;;;;;;5067829;28;20439;-67
2022/10/12 09:05:26;;;;;;;6.33;3.70;;;13.40;44.10;;;;;;5069834;28;20436;-70
2022/10/12 09:08:40;;;;;;;8.70;4.17;;;13.50;29.60;;;;;;5069893;28;20431;-71
2022/10/12 09:11:16;;;;;;;6.60;4.23;;;13.70;22.90;;;;;;5063754;28;20419;-70
2022/10/12 09:14:06;;;;;;;12.23;4.07;;;13.90;7.70;;;;;;5071775;28;20412;-68
2022/10/12 09:16:35;;;;;;;11.17;4.03;;;14.10;1.00;;;;;;5059111;28;20445;-70
2022/10/12 09:19:08;;;;;;;8.00;4.17;;;14.30;1.00;;;;;;5072063;28;20405;-69
2022/10/12 09:21:35;;;;;;;7.20;5.60;;;14.60;1.00;;;;;;5056276;28;20421;-70
2022/10/12 09:24:03;;;;;;;9.70;3.70;;;15.00;1.00;;;;;;5074623;28;20452;-70
2022/10/12 09:26:36;;;;;;;8.73;3.47;;;15.20;1.00;;;;;;5075893;28;20523;-69
2022/10/12 09:29:10;;;;;;;5.13;3.23;;;15.10;1.00;;;;;;5076197;28;20436;-69
2022/10/12 09:31:56;;;;;;;8.83;3.83;;;15.10;1.00;;;;;;5075991;28;20868;-69
2022/10/12 09:34:23;;;;;;;6.80;3.23;;;15.20;1.00;;;;;;5071383;28;20427;-70
2022/10/12 09:36:49;;;;;;;10.27;3.37;;;15.40;1.00;;;;;;5072080;28;20470;-69
2022/10/12 09:39:19;;;;;;;8.50;3.10;;;15.60;1.00;;;;;;5076074;28;20396;-69
2022/10/12 09:41:48;;;;;;;14.50;4.10;;;15.80;1.00;;;;;;5060043;28;20484;-70
2022/10/12 09:44:49;;;;;;;7.20;3.10;;;15.90;1.00;;;;;;5055016;28;20789;-72
2022/10/12 09:47:22;;;;;;;9.07;3.53;;;16.00;1.00;;;;;;5055920;28;20421;-70
2022/10/12 09:49:50;;;;;;;7.03;3.20;;;16.40;1.00;;;;;;5055727;28;20536;-70
2022/10/12 09:52:20;;;;;;;11.20;3.07;;;16.50;1.00;;;;;;5073782;28;20424;-70
2022/10/12 09:54:50;;;;;;;7.33;3.20;;;16.50;1.00;;;;;;5073687;28;20412;-70
2022/10/12 09:57:36;;;;;;;4.83;3.03;;;16.70;1.00;;;;;;5074226;28;20428;-70
2022/10/12 10:00:05;;;;;;;7.10;3.23;;;17.30;1.00;;;;;;5075576;28;20388;-69
2022/10/12 10:02:33;;;;;;;5.73;3.30;;;17.50;1.00;;;;;;5073829;28;20485;-70
2022/10/12 10:05:21;;;;;;;19.93;5.47;;;17.50;1.00;;;;;;5074457;28;20408;-70
2022/10/12 10:07:47;;;;;;;12.27;4.00;;;17.50;1.00;;;;;;5075519;28;20440;-70
2022/10/12 10:10:20;;;;;;;9.77;3.20;;;17.50;1.00;;;;;;5060798;28;20984;-72
2022/10/12 10:12:54;;;;;;;9.87;4.20;;;17.50;1.00;;;;;;5055358;28;20162;-68
2022/10/12 10:15:26;;;;;;;5.60;2.57;;;17.70;1.00;;;;;;5059785;28;20428;-68
2022/10/12 10:17:54;;;;;;;5.40;3.50;;;17.70;1.00;;;;;;5075287;28;20449;-72
2022/10/12 10:20:42;;;;;;;8.90;3.57;;;18.00;1.00;;;;;;5074885;28;20427;-70
2022/10/12 10:23:30;;;;;;;8.90;3.10;;;18.10;1.00;;;;;;5070747;28;20493;-70
2022/10/12 10:26:01;;;;;;;4.63;2.87;;;17.90;1.00;;;;;;5062863;28;20774;-70
2022/10/12 10:28:29;;;;;;;4.23;2.50;;;17.90;1.00;;;;;;5073600;28;20421;-72
2022/10/12 10:31:02;;;;;;;10.47;4.00;;;17.70;1.00;;;;;;5074603;28;20597;-70
2022/10/12 10:33:30;;;;;;;14.17;4.10;;;17.60;1.00;;;;;;5074777;28;20408;-71
2022/10/12 10:35:55;;;;;;;5.80;2.90;;;17.30;1.00;;;;;;5073057;28;20450;-71
2022/10/12 10:38:21;;;;;;;9.87;3.03;;;17.00;1.00;;;;;;5056057;28;20434;-70
2022/10/12 10:40:56;;;;;;;5.30;2.63;;;16.70;1.00;;;;;;5054951;28;20174;-70
2022/10/12 10:43:30;;;;;;;9.17;2.90;;;16.60;1.00;;;;;;5061297;28;20470;-72
2022/10/12 10:45:59;;;;;;;6.30;2.90;;;16.60;1.00;;;;;;5073973;28;20429;-70
2022/10/12 10:48:51;;;;;;;12.23;3.50;;;16.60;1.00;;;;;;5074281;28;20404;-71
2022/10/12 10:51:18;;;;;;;6.13;3.30;;;16.60;1.00;;;;;;5070685;28;20936;-71
2022/10/12 10:53:48;;;;;;;10.10;3.10;;;16.60;1.00;;;;;;5073782;28;20436;-70
2022/10/12 10:56:29;;;;;;;5.30;2.47;;;16.60;1.00;;;;;;5074341;28;20441;-70
2022/10/12 10:59:00;;;;;;;7.33;3.40;;;16.50;1.00;;;;;;5074136;28;20414;-71
2022/10/12 11:01:39;;;;;;;7.63;2.70;;;16.50;1.00;;;;;;5074054;28;20515;-72
2022/10/12 11:04:17;;;;;;;10.27;2.57;;;16.60;1.00;;;;;;5073079;28;20920;-72
2022/10/12 11:07:06;;;;;;;9.03;2.50;;;16.60;1.00;;;;;;5068334;28;20452;-71
2022/10/12 11:09:43;;;;;;;7.50;2.70;;;16.70;1.00;;;;;;5054249;28;20961;-71
2022/10/12 11:12:20;;;;;;;12.63;3.10;;;16.70;1.00;;;;;;5070235;28;20416;-70
2022/10/12 11:14:51;;;;;;;3.83;2.17;;;16.80;1.00;;;;;;5072951;28;20565;-73
2022/10/12 11:17:22;;;;;;;6.87;1.93;;;16.90;1.00;;;;;;5073817;28;20428;-70
2022/10/12 11:20:03;;;;;;;8.23;1.97;;;17.10;1.00;;;;;;5073992;28;20758;-71
2022/10/12 11:22:51;;;;;;;11.20;2.40;;;17.10;1.00;;;;;;5060459;28;20542;-72
2022/10/12 11:25:33;;;;;;;9.30;2.60;;;17.10;1.00;;;;;;5072726;28;20437;-72
2022/10/12 11:27:58;;;;;;;9.17;2.93;;;17.00;1.00;;;;;;5054206;28;20866;-70
2022/10/12 11:30:29;;;;;;;3.67;2.17;;;17.00;1.00;;;;;;5054333;28;20445;-70
2022/10/12 11:33:05;;;;;;;7.10;2.33;;;16.90;1.00;;;;;;5072721;28;20170;-71
2022/10/12 11:35:35;;;;;;;8.33;2.17;;;16.80;1.00;;;;;;5058275;28;20530;-70
2022/10/12 11:38:07;;;;;;;6.87;2.40;;;16.80;1.00;;;;;;5072763;28;20399;-71
2022/10/12 11:40:46;;;;;;;5.27;2.20;;;16.80;1.00;;;;;;5073776;28;20372;-70
2022/10/12 11:43:19;;;;;;;9.23;2.70;;;16.80;1.00;;;;;;5053766;28;21257;-70
2022/10/12 11:45:48;;;;;;;6.27;2.60;;;16.90;1.00;;;;;;5054148;28;20901;-71
2022/10/12 11:48:29;;;;;;;5.97;2.20;;;16.90;1.00;;;;;;5071142;28;20529;-70
2022/10/12 11:50:55;;;;;;;6.10;3.27;;;17.10;1.00;;;;;;5055390;28;20802;-70
2022/10/12 11:53:46;;;;;;;8.17;3.43;;;17.00;1.00;;;;;;5073240;28;20488;-71
2022/10/12 11:56:26;;;;;;;5.57;1.60;;;17.10;1.00;;;;;;5053412;28;20532;-69
2022/10/12 11:59:01;;;;;;;8.63;4.30;;;17.10;1.00;;;;;;5055330;28;20381;-70
2022/10/12 12:01:42;;;;;;;5.30;2.73;;;17.00;1.00;;;;;;5073408;28;20888;-70
2022/10/12 12:04:13;;;;;;;5.17;2.07;;;16.80;1.00;;;;;;5056013;28;20416;-70
2022/10/12 12:07:21;;;;;;;7.47;2.60;;;16.90;1.00;;;;;;5073270;28;20444;-70
2022/10/12 12:09:47;;;;;;;5.30;2.30;;;16.80;1.00;;;;;;5062559;28;20812;-70
2022/10/12 12:12:25;;;;;;;2.97;2.10;;;16.60;1.00;;;;;;5073478;28;20408;-70
2022/10/12 12:14:53;;;;;;;5.53;1.87;;;16.60;1.00;;;;;;5071808;28;20408;-70
2022/10/12 12:17:19;;;;;;;6.77;1.77;;;16.70;1.00;;;;;;5054023;28;20425;-70
2022/10/12 12:19:47;;;;;;;7.00;1.93;;;17.00;1.00;;;;;;5067540;28;20982;-70
2022/10/12 12:22:30;;;;;;;8.03;2.27;;;17.20;1.00;;;;;;5069413;28;20175;-69
2022/10/12 12:25:03;;;;;;;8.40;3.20;;;17.20;1.00;;;;;;5067681;28;20499;-69
2022/10/12 12:27:34;;;;;;;4.90;2.00;;;17.30;1.00;;;;;;5073327;28;20488;-69
2022/10/12 12:30:20;;;;;;;6.87;2.10;;;17.40;1.00;;;;;;5072688;28;20796;-70
2022/10/12 12:32:52;;;;;;;3.43;2.00;;;17.10;1.00;;;;;;5073221;28;20427;-69
2022/10/12 12:35:38;;;;;;;7.53;2.73;;;16.80;1.00;;;;;;5062283;28;20453;-70
2022/10/12 12:38:21;;;;;;;4.23;1.90;;;16.90;1.00;;;;;;5053395;28;20394;-69
2022/10/12 12:41:00;;;;;;;4.47;2.20;;;17.10;1.00;;;;;;5053186;28;20406;-69
2022/10/12 12:43:28;;;;;;;2.47;1.90;;;17.00;1.00;;;;;;5053685;28;20500;-74
2022/10/12 12:46:01;;;;;;;5.30;1.97;;;16.80;1.00;;;;;;5072334;28;20412;-69
2022/10/12 12:48:41;;;;;;;17.53;3.00;;;16.70;1.00;;;;;;5073903;28;20413;-71
2022/10/12 12:51:18;;;;;;;3.30;2.03;;;16.60;1.00;;;;;;5058263;28;20492;-69
2022/10/12 12:53:54;;;;;;;7.70;2.07;;;16.70;1.00;;;;;;5057802;28;20750;-70
2022/10/12 12:56:44;;;;;;;6.37;2.50;;;17.20;1.00;;;;;;5076953;28;20419;-68
2022/10/12 12:59:23;;;;;;;4.07;2.27;;;17.50;1.00;;;;;;5056812;28;20401;-69
2022/10/12 13:01:55;;;;;;;5.93;2.30;;;17.80;1.00;;;;;;5074493;28;20427;-68
2022/10/12 13:04:30;;;;;;;9.37;3.17;;;17.80;1.00;;;;;;5069479;28;20499;-68
2022/10/12 13:07:17;;;;;;;8.30;2.20;;;17.70;1.00;;;;;;5074705;28;20824;-69